createdAt,value
2019-05-09T00:02:33.761Z,19.53
2019-05-09T00:05:03.709Z,17.47
2019-05-09T00:07:33.826Z,18.17
2019-05-09T00:10:04.013Z,17.37
2019-05-09T00:12:33.731Z,15.37
2019-05-09T00:15:04.467Z,16.90
2019-05-09T00:17:34.306Z,18.13
2019-05-09T00:20:10.847Z,16.97
2019-05-09T00:22:40.100Z,18.03
2019-05-09T00:25:10.340Z,15.97
2019-05-09T00:27:39.654Z,15.53
2019-05-09T00:30:09.195Z,17.00
2019-05-09T00:32:40.261Z,15.80
2019-05-09T00:35:26.637Z,16.57
2019-05-09T00:37:58.319Z,17.33
2019-05-09T00:40:27.761Z,16.03
2019-05-09T00:42:56.972Z,15.37
2019-05-09T00:45:45.198Z,15.40
2019-05-09T00:48:16.845Z,14.90
2019-05-09T00:50:46.111Z,13.90
2019-05-09T00:53:15.719Z,12.80
2019-05-09T00:55:45.606Z,14.20
2019-05-09T00:58:15.092Z,13.47
2019-05-09T01:00:45.069Z,14.27
2019-05-09T01:03:14.389Z,12.73
2019-05-09T01:05:44.117Z,13.93
2019-05-09T01:08:16.322Z,13.93
2019-05-09T01:10:45.636Z,13.73
2019-05-09T01:13:14.940Z,14.23
2019-05-09T01:15:44.359Z,13.30
2019-05-09T01:18:16.114Z,14.50
2019-05-09T01:20:45.344Z,13.97
2019-05-09T01:23:14.620Z,13.80
2019-05-09T01:25:43.965Z,13.20
2019-05-09T01:28:14.030Z,13.80
2019-05-09T01:30:43.952Z,14.03
2019-05-09T01:33:27.592Z,13.17
2019-05-09T01:35:57.259Z,13.40
2019-05-09T01:38:26.889Z,12.00
2019-05-09T01:40:56.405Z,13.07
2019-05-09T01:43:25.991Z,12.77
2019-05-09T01:45:55.566Z,12.63
2019-05-09T01:48:25.219Z,12.70
2019-05-09T01:50:54.475Z,12.70
2019-05-09T01:53:33.609Z,13.50
2019-05-09T01:56:03.849Z,12.40
2019-05-09T01:58:34.573Z,13.50
2019-05-09T02:01:06.499Z,12.87
2019-05-09T02:03:37.027Z,13.13
2019-05-09T02:06:06.778Z,13.27
2019-05-09T02:08:36.552Z,12.80
2019-05-09T02:11:05.782Z,13.53
2019-05-09T02:13:35.392Z,13.60
2019-05-09T02:16:36.082Z,12.87
2019-05-09T02:19:20.107Z,12.50
2019-05-09T02:21:49.838Z,13.37
2019-05-09T02:24:19.439Z,14.47
2019-05-09T02:26:48.692Z,13.30
2019-05-09T02:29:17.999Z,14.73
2019-05-09T02:31:47.630Z,13.77
2019-05-09T02:34:17.247Z,14.20
2019-05-09T02:36:49.488Z,14.30
2019-05-09T02:39:18.877Z,13.70
2019-05-09T02:42:00.989Z,15.50
2019-05-09T02:44:19.933Z,14.70
2019-05-09T02:47:14.039Z,14.00
2019-05-09T02:49:44.432Z,14.33
2019-05-09T02:52:13.990Z,15.47
2019-05-09T02:54:43.620Z,13.70
2019-05-09T02:57:12.911Z,14.17
2019-05-09T03:00:10.776Z,13.57
2019-05-09T03:02:59.518Z,13.37
2019-05-09T03:05:30.405Z,13.53
2019-05-09T03:07:59.920Z,13.37
2019-05-09T03:10:29.703Z,16.00
2019-05-09T03:12:59.663Z,13.60
2019-05-09T03:15:29.533Z,13.43
2019-05-09T03:18:00.135Z,13.97
2019-05-09T03:21:08.988Z,13.53
2019-05-09T03:23:38.916Z,14.53
2019-05-09T03:26:10.363Z,12.63
2019-05-09T03:29:04.483Z,13.77
2019-05-09T03:31:34.271Z,14.40
2019-05-09T03:34:03.545Z,12.60
2019-05-09T03:36:33.567Z,14.00
2019-05-09T03:39:03.116Z,12.73
2019-05-09T03:41:32.685Z,12.40
2019-05-09T03:44:02.331Z,12.47
2019-05-09T03:46:51.739Z,12.77
2019-05-09T03:49:22.191Z,13.33
2019-05-09T03:51:51.430Z,12.70
2019-05-09T03:54:21.003Z,11.27
2019-05-09T03:56:57.235Z,12.13
2019-05-09T03:59:27.866Z,12.60
2019-05-09T04:01:59.038Z,13.60
2019-05-09T04:04:29.836Z,12.67
2019-05-09T04:07:00.863Z,14.33
2019-05-09T04:09:30.093Z,13.10
2019-05-09T04:12:00.299Z,13.37
2019-05-09T04:14:32.635Z,14.37
2019-05-09T04:17:02.252Z,13.40
2019-05-09T04:19:33.249Z,13.73
2019-05-09T04:22:02.596Z,14.00
2019-05-09T04:24:34.099Z,14.43
2019-05-09T04:27:10.335Z,12.80
2019-05-09T04:29:41.599Z,13.93
2019-05-09T04:32:11.256Z,13.70
2019-05-09T04:34:40.942Z,12.77
2019-05-09T04:37:12.090Z,12.83
2019-05-09T04:39:41.268Z,12.40
2019-05-09T04:42:10.911Z,11.50
2019-05-09T04:45:03.206Z,12.70
2019-05-09T04:47:29.212Z,13.87
2019-05-09T04:49:58.517Z,11.93
2019-05-09T04:52:28.083Z,12.07
2019-05-09T04:54:58.442Z,11.47
2019-05-09T04:57:27.928Z,10.77
2019-05-09T04:59:57.585Z,9.70
2019-05-09T05:02:48.463Z,10.33
2019-05-09T05:05:18.195Z,9.63
2019-05-09T05:07:48.164Z,9.60
2019-05-09T05:10:18.410Z,11.43
2019-05-09T05:12:48.427Z,9.53
2019-05-09T05:15:20.328Z,8.90
2019-05-09T05:17:48.865Z,9.20
2019-05-09T05:20:21.948Z,8.77
2019-05-09T05:22:58.140Z,8.00
2019-05-09T05:25:28.146Z,8.20
2019-05-09T05:27:58.189Z,8.40
2019-05-09T05:30:28.470Z,8.17
2019-05-09T05:33:02.032Z,8.20
2019-05-09T05:35:37.761Z,8.90
2019-05-09T05:38:08.499Z,9.30
2019-05-09T05:40:45.671Z,7.70
2019-05-09T05:43:09.092Z,7.60
2019-05-09T05:45:51.316Z,7.90
2019-05-09T05:48:24.237Z,6.43
2019-05-09T05:50:53.515Z,6.37
2019-05-09T05:53:22.789Z,6.13
2019-05-09T05:55:52.773Z,5.73
2019-05-09T05:58:22.252Z,5.57
2019-05-09T06:00:53.748Z,5.80
2019-05-09T06:03:24.105Z,5.30
2019-05-09T06:05:53.705Z,4.70
2019-05-09T06:08:22.992Z,4.87
2019-05-09T06:10:52.215Z,3.67
2019-05-09T06:13:21.846Z,4.47
2019-05-09T06:15:53.067Z,3.47
2019-05-09T06:18:22.583Z,3.90
2019-05-09T06:20:51.900Z,4.20
2019-05-09T06:23:21.440Z,3.60
2019-05-09T06:25:50.705Z,3.80
2019-05-09T06:28:20.511Z,3.70
2019-05-09T06:30:49.827Z,3.20
2019-05-09T06:33:19.044Z,3.60
2019-05-09T06:35:48.681Z,3.63
2019-05-09T06:38:18.893Z,3.50
2019-05-09T06:40:48.249Z,3.23
2019-05-09T06:43:18.736Z,3.23
2019-05-09T06:46:22.671Z,3.20
2019-05-09T06:48:52.281Z,2.57
2019-05-09T06:51:21.541Z,2.43
2019-05-09T06:53:50.782Z,2.77
2019-05-09T06:56:20.414Z,3.00
2019-05-09T06:58:49.758Z,3.33
2019-05-09T07:01:37.957Z,2.80
2019-05-09T07:04:12.370Z,3.53
2019-05-09T07:06:50.268Z,3.23
2019-05-09T07:09:27.997Z,3.93
2019-05-09T07:11:58.611Z,3.73
2019-05-09T07:14:32.344Z,3.63
2019-05-09T07:16:59.958Z,3.65
2019-05-09T07:19:29.679Z,3.57
2019-05-09T07:22:21.260Z,3.40
2019-05-09T07:25:21.730Z,3.87
2019-05-09T07:27:51.443Z,4.00
2019-05-09T07:30:43.013Z,3.30
2019-05-09T07:33:34.617Z,3.30
2019-05-09T07:36:03.912Z,3.70
2019-05-09T07:38:33.443Z,3.60
2019-05-09T07:41:02.813Z,3.23
2019-05-09T07:43:32.083Z,3.37
2019-05-09T07:46:05.544Z,3.47
2019-05-09T07:48:38.060Z,3.27
2019-05-09T07:51:08.025Z,3.63
2019-05-09T07:53:38.180Z,3.33
2019-05-09T07:56:08.655Z,3.30
2019-05-09T07:58:39.280Z,3.90
2019-05-09T08:01:08.869Z,3.37
2019-05-09T08:03:38.633Z,3.63
2019-05-09T08:06:08.976Z,3.37
2019-05-09T08:08:38.741Z,3.47
2019-05-09T08:11:09.080Z,3.60
2019-05-09T08:13:39.744Z,3.37
2019-05-09T08:16:14.130Z,3.67
2019-05-09T08:18:40.520Z,3.73
2019-05-09T08:21:09.790Z,4.37
2019-05-09T08:23:39.414Z,4.53
2019-05-09T08:26:09.078Z,4.70
2019-05-09T08:28:39.206Z,4.70
2019-05-09T08:31:08.641Z,5.87
2019-05-09T08:33:38.328Z,6.00
2019-05-09T08:36:08.858Z,6.40
2019-05-09T08:38:39.113Z,6.77
2019-05-09T08:41:09.784Z,7.50
2019-05-09T08:43:40.664Z,7.10
2019-05-09T08:46:10.204Z,6.40
2019-05-09T08:48:40.869Z,6.03
2019-05-09T08:51:14.044Z,6.50
2019-05-09T08:53:43.314Z,5.90
2019-05-09T08:56:13.162Z,5.60
2019-05-09T08:58:42.896Z,6.77
2019-05-09T09:01:13.197Z,8.20
2019-05-09T09:03:42.509Z,7.47
2019-05-09T09:06:11.906Z,6.93
2019-05-09T09:08:43.011Z,7.80
2019-05-09T09:11:13.492Z,8.70
2019-05-09T09:13:43.101Z,7.47
2019-05-09T09:16:18.709Z,10.00
2019-05-09T09:18:44.786Z,10.50
2019-05-09T09:21:14.054Z,9.07
2019-05-09T09:23:47.177Z,9.20
2019-05-09T09:26:15.066Z,10.35
2019-05-09T09:28:48.483Z,10.10
2019-05-09T09:31:18.126Z,12.03
2019-05-09T09:33:48.139Z,11.73
2019-05-09T09:36:18.003Z,12.33
2019-05-09T09:38:48.163Z,11.07
2019-05-09T09:41:19.219Z,11.30
2019-05-09T09:43:48.458Z,10.50
2019-05-09T09:46:18.324Z,10.80
2019-05-09T09:48:48.157Z,11.93
2019-05-09T09:51:18.693Z,12.10
2019-05-09T09:53:49.068Z,11.50
2019-05-09T09:56:22.393Z,13.07
2019-05-09T09:59:00.952Z,13.30
2019-05-09T10:01:33.636Z,12.40
2019-05-09T10:04:20.678Z,13.50
2019-05-09T10:06:48.074Z,11.40
2019-05-09T10:09:17.620Z,12.63
2019-05-09T10:11:48.298Z,12.20
2019-05-09T10:14:28.354Z,12.77
2019-05-09T10:17:17.963Z,13.03
2019-05-09T10:19:55.027Z,12.53
2019-05-09T10:22:26.199Z,12.27
2019-05-09T10:24:58.620Z,15.40
2019-05-09T10:27:28.352Z,10.70
2019-05-09T10:29:57.858Z,10.80
2019-05-09T10:32:28.864Z,10.40
2019-05-09T10:34:58.314Z,10.40
2019-05-09T10:37:27.857Z,10.93
2019-05-09T10:39:58.043Z,11.63
2019-05-09T10:42:48.130Z,13.13
2019-05-09T10:45:40.707Z,11.45
2019-05-09T10:48:09.815Z,11.20
2019-05-09T10:50:44.283Z,10.17
2019-05-09T10:53:10.765Z,10.40
2019-05-09T10:56:40.833Z,10.03
2019-05-09T10:59:10.049Z,9.90
2019-05-09T11:01:39.321Z,10.40
2019-05-09T11:04:08.599Z,11.90
2019-05-09T11:06:38.557Z,11.77
2019-05-09T11:09:09.343Z,21.63
2019-05-09T11:11:38.849Z,10.73
2019-05-09T11:14:08.766Z,12.17
2019-05-09T11:16:45.961Z,11.40
2019-05-09T11:19:09.567Z,11.30
2019-05-09T11:21:39.396Z,11.40
2019-05-09T11:24:11.397Z,12.63
2019-05-09T11:26:40.649Z,13.07
2019-05-09T11:29:11.432Z,13.13
2019-05-09T11:31:40.705Z,15.47
2019-05-09T11:34:11.863Z,14.60
2019-05-09T11:36:44.036Z,15.57
2019-05-09T11:39:13.286Z,15.93
2019-05-09T11:41:44.900Z,16.50
2019-05-09T11:44:14.181Z,15.03
2019-05-09T11:46:43.430Z,15.97
2019-05-09T11:49:13.014Z,15.77
2019-05-09T11:51:42.619Z,16.50
2019-05-09T11:54:11.910Z,16.97
2019-05-09T11:56:41.266Z,16.30
2019-05-09T11:59:10.618Z,16.33
2019-05-09T12:01:40.052Z,15.43
2019-05-09T12:04:12.122Z,15.57
2019-05-09T12:06:43.739Z,15.47
2019-05-09T12:09:14.787Z,14.63
2019-05-09T12:11:44.869Z,15.80
2019-05-09T12:14:14.325Z,15.77
2019-05-09T12:16:47.822Z,14.90
2019-05-09T12:19:17.985Z,14.80
2019-05-09T12:21:48.407Z,15.33
2019-05-09T12:24:18.623Z,13.80
2019-05-09T12:26:48.434Z,12.83
2019-05-09T12:29:19.698Z,13.60
2019-05-09T12:31:48.866Z,13.83
2019-05-09T12:34:19.277Z,13.80
2019-05-09T12:36:49.649Z,14.23
2019-05-09T12:39:20.981Z,13.53
2019-05-09T12:41:51.040Z,14.93
2019-05-09T12:44:24.935Z,13.50
2019-05-09T12:46:53.280Z,13.00
2019-05-09T12:49:22.616Z,11.90
2019-05-09T12:51:51.829Z,11.13
2019-05-09T12:54:22.870Z,12.23
2019-05-09T12:56:52.214Z,11.60
2019-05-09T12:59:21.898Z,10.80
2019-05-09T13:01:51.631Z,10.60
2019-05-09T13:04:21.138Z,11.77
2019-05-09T13:06:50.732Z,11.77
2019-05-09T13:09:19.918Z,11.90
2019-05-09T13:11:49.227Z,11.13
2019-05-09T13:14:19.247Z,12.03
2019-05-09T13:17:17.955Z,10.23
2019-05-09T13:19:48.657Z,11.80
2019-05-09T13:22:18.494Z,11.13
2019-05-09T13:24:47.892Z,9.93
2019-05-09T13:27:18.928Z,10.10
2019-05-09T13:29:49.283Z,10.30
2019-05-09T13:32:19.030Z,11.77
2019-05-09T13:34:48.895Z,10.70
2019-05-09T13:37:18.876Z,9.70
2019-05-09T13:39:50.024Z,9.93
2019-05-09T13:42:20.895Z,10.50
2019-05-09T13:44:50.591Z,10.43
2019-05-09T13:47:19.840Z,11.00
2019-05-09T13:49:50.920Z,11.77
2019-05-09T13:52:20.158Z,12.57
2019-05-09T13:54:49.651Z,12.50
2019-05-09T13:57:19.031Z,11.60
2019-05-09T13:59:49.929Z,11.83
2019-05-09T14:02:19.513Z,13.17
2019-05-09T14:04:49.079Z,12.60
2019-05-09T14:07:19.396Z,12.50
2019-05-09T14:09:48.876Z,13.00
2019-05-09T14:12:18.459Z,13.20
2019-05-09T14:14:47.849Z,13.50
2019-05-09T14:17:19.197Z,12.40
2019-05-09T14:19:51.146Z,11.40
2019-05-09T14:22:20.903Z,11.67
2019-05-09T14:24:50.143Z,11.67
2019-05-09T14:27:22.929Z,13.03
2019-05-09T14:29:52.216Z,13.33
2019-05-09T14:32:21.890Z,12.90
2019-05-09T14:34:51.392Z,12.23
2019-05-09T14:37:20.667Z,12.20
2019-05-09T14:39:58.396Z,12.87
2019-05-09T14:42:21.447Z,13.17
2019-05-09T14:44:50.703Z,12.63
2019-05-09T14:47:21.839Z,12.87
2019-05-09T14:49:51.601Z,12.77
2019-05-09T14:52:21.238Z,13.00
2019-05-09T14:54:51.226Z,12.30
2019-05-09T14:57:22.702Z,11.70
2019-05-09T14:59:51.973Z,12.73
2019-05-09T15:02:22.837Z,10.07
2019-05-09T15:04:52.374Z,10.47
2019-05-09T15:07:21.621Z,11.07
2019-05-09T15:09:54.020Z,10.80
2019-05-09T15:12:23.429Z,13.63
2019-05-09T15:14:54.941Z,10.70
2019-05-09T15:17:24.543Z,10.43
2019-05-09T15:20:00.069Z,12.13
2019-05-09T15:22:24.867Z,11.50
2019-05-09T15:24:54.101Z,12.30
2019-05-09T15:27:25.142Z,11.03
2019-05-09T15:29:58.481Z,11.60
2019-05-09T15:32:27.982Z,11.80
2019-05-09T15:34:59.634Z,10.80
2019-05-09T15:37:29.525Z,11.67
2019-05-09T15:39:59.081Z,9.87
2019-05-09T15:42:30.553Z,9.37
2019-05-09T15:45:00.447Z,8.40
2019-05-09T15:47:34.738Z,8.40
2019-05-09T15:50:16.571Z,7.50
2019-05-09T15:52:38.236Z,7.53
2019-05-09T15:55:09.451Z,7.40
2019-05-09T15:57:38.805Z,6.53
2019-05-09T16:00:09.975Z,6.20
2019-05-09T16:02:39.394Z,6.80
2019-05-09T16:05:10.577Z,6.87
2019-05-09T16:07:40.064Z,5.57
2019-05-09T16:10:09.962Z,6.80
2019-05-09T16:12:39.623Z,6.37
2019-05-09T16:15:10.597Z,5.93
2019-05-09T16:17:40.462Z,6.10
2019-05-09T16:20:10.205Z,5.20
2019-05-09T16:22:39.814Z,5.00
2019-05-09T16:25:10.203Z,4.60
2019-05-09T16:27:40.709Z,4.17
2019-05-09T16:30:10.538Z,4.30
2019-05-09T16:32:40.791Z,3.67
2019-05-09T16:35:10.291Z,4.43
2019-05-09T16:37:56.954Z,4.07
2019-05-09T16:40:10.928Z,3.13
2019-05-09T16:42:40.267Z,3.60
2019-05-09T16:45:10.379Z,2.00
2019-05-09T16:47:41.465Z,2.27
2019-05-09T16:50:12.352Z,2.30
2019-05-09T16:52:43.741Z,2.57
2019-05-09T16:55:18.119Z,2.40
2019-05-09T16:57:48.155Z,3.40
2019-05-09T17:00:31.666Z,3.10
2019-05-09T17:03:02.741Z,2.60
2019-05-09T17:05:33.792Z,3.10
2019-05-09T17:08:03.125Z,2.67
2019-05-09T17:10:32.817Z,2.40
2019-05-09T17:13:02.096Z,2.70
2019-05-09T17:15:31.341Z,2.97
2019-05-09T17:18:00.632Z,3.47
2019-05-09T17:20:40.600Z,3.67
2019-05-09T17:23:17.806Z,4.00
2019-05-09T17:25:48.013Z,4.00
2019-05-09T17:28:18.030Z,3.80
2019-05-09T17:30:49.719Z,5.70
2019-05-09T17:33:19.361Z,5.80
2019-05-09T17:35:50.792Z,6.23
2019-05-09T17:38:20.451Z,6.57
2019-05-09T17:40:50.220Z,6.90
2019-05-09T17:43:20.133Z,6.30
2019-05-09T17:45:49.439Z,6.67
2019-05-09T17:48:21.117Z,8.30
2019-05-09T17:50:51.379Z,6.90
2019-05-09T17:53:21.219Z,6.40
2019-05-09T17:55:52.659Z,6.97
2019-05-09T17:58:29.242Z,6.30
2019-05-09T18:00:53.439Z,7.03
2019-05-09T18:03:23.123Z,7.70
2019-05-09T18:05:52.374Z,7.20
2019-05-09T18:08:22.155Z,8.23
2019-05-09T18:10:53.451Z,8.70
2019-05-09T18:13:23.755Z,7.83
2019-05-09T18:15:53.428Z,8.23
2019-05-09T18:18:22.696Z,7.63
2019-05-09T18:20:52.563Z,8.40
2019-05-09T18:23:24.097Z,7.97
2019-05-09T18:25:53.327Z,8.00
2019-05-09T18:28:24.261Z,8.50
2019-05-09T18:30:53.558Z,7.80
2019-05-09T18:33:41.762Z,9.03
2019-05-09T18:36:11.317Z,8.50
2019-05-09T18:38:40.715Z,9.00
2019-05-09T18:41:10.346Z,8.27
2019-05-09T18:43:41.663Z,8.87
2019-05-09T18:46:12.465Z,9.47
2019-05-09T18:48:42.111Z,8.87
2019-05-09T18:51:12.379Z,8.97
2019-05-09T18:53:42.041Z,7.67
2019-05-09T18:56:11.680Z,7.40
2019-05-09T18:58:41.306Z,8.03
2019-05-09T19:01:11.188Z,6.13
2019-05-09T19:03:40.802Z,7.67
2019-05-09T19:06:11.029Z,7.90
2019-05-09T19:08:40.301Z,6.97
2019-05-09T19:11:11.695Z,8.53
2019-05-09T19:13:42.308Z,6.70
2019-05-09T19:16:40.345Z,7.30
2019-05-09T19:19:19.632Z,8.13
2019-05-09T19:21:52.840Z,7.97
2019-05-09T19:24:22.392Z,8.03
2019-05-09T19:26:53.070Z,8.93
2019-05-09T19:29:23.820Z,9.10
2019-05-09T19:31:53.246Z,8.40
2019-05-09T19:34:43.310Z,7.87
2019-05-09T19:37:13.394Z,7.40
2019-05-09T19:39:43.885Z,7.80
2019-05-09T19:42:14.327Z,7.90
2019-05-09T19:44:43.957Z,6.30
2019-05-09T19:47:14.526Z,7.37
2019-05-09T19:49:43.808Z,7.80
2019-05-09T19:52:13.571Z,8.17
2019-05-09T19:54:44.926Z,9.87
2019-05-09T19:57:16.506Z,8.83
2019-05-09T19:59:45.783Z,10.33
2019-05-09T20:02:18.685Z,9.30
2019-05-09T20:04:50.212Z,8.50
2019-05-09T20:07:19.471Z,8.83
2019-05-09T20:09:54.441Z,9.50
2019-05-09T20:12:42.903Z,9.10
2019-05-09T20:15:14.905Z,10.20
2019-05-09T20:17:44.516Z,9.40
2019-05-09T20:20:13.911Z,9.63
2019-05-09T20:22:52.414Z,9.00
2019-05-09T20:25:15.700Z,9.63
2019-05-09T20:27:44.977Z,10.17
2019-05-09T20:30:15.720Z,9.63
2019-05-09T20:32:45.360Z,11.00
2019-05-09T20:35:14.902Z,11.38
2019-05-09T20:37:44.489Z,11.20
2019-05-09T20:40:14.438Z,11.30
2019-05-09T20:42:44.483Z,12.90
2019-05-09T20:45:14.452Z,11.30
2019-05-09T20:47:44.295Z,12.00
2019-05-09T20:50:13.888Z,11.63
2019-05-09T20:52:43.312Z,11.70
2019-05-09T20:55:15.207Z,12.70
2019-05-09T20:57:45.794Z,13.13
2019-05-09T21:00:15.213Z,12.80
2019-05-09T21:02:45.102Z,12.87
2019-05-09T21:05:15.126Z,13.00
2019-05-09T21:07:44.859Z,12.80
2019-05-09T21:10:14.418Z,13.80
2019-05-09T21:12:43.971Z,15.80
2019-05-09T21:15:13.901Z,13.80
2019-05-09T21:17:44.333Z,13.90
2019-05-09T21:20:14.153Z,13.62
2019-05-09T21:22:44.045Z,18.63
2019-05-09T21:25:13.481Z,13.80
2019-05-09T21:27:43.384Z,14.80
2019-05-09T21:30:13.139Z,13.73
2019-05-09T21:32:42.653Z,14.20
2019-05-09T21:35:13.741Z,14.27
2019-05-09T21:37:43.012Z,14.37
2019-05-09T21:40:12.501Z,14.50
2019-05-09T21:42:41.829Z,14.37
2019-05-09T21:45:12.429Z,15.63
2019-05-09T21:47:42.824Z,15.93
2019-05-09T21:50:12.530Z,17.23
2019-05-09T21:52:42.242Z,17.20
2019-05-09T21:55:11.495Z,16.23
2019-05-09T21:57:41.031Z,15.20
2019-05-09T22:00:14.487Z,15.37
2019-05-09T22:02:43.768Z,14.47
2019-05-09T22:05:14.073Z,14.77
2019-05-09T22:07:44.487Z,13.87
2019-05-09T22:10:15.466Z,13.53
2019-05-09T22:12:46.557Z,13.23
2019-05-09T22:15:17.434Z,12.20
2019-05-09T22:17:47.695Z,12.70
2019-05-09T22:20:17.847Z,11.93
2019-05-09T22:22:47.135Z,11.67
2019-05-09T22:25:16.633Z,12.10
2019-05-09T22:27:46.395Z,11.07
2019-05-09T22:30:18.339Z,11.90
2019-05-09T22:32:47.678Z,12.97
2019-05-09T22:35:18.815Z,9.80
2019-05-09T22:37:49.116Z,11.83
2019-05-09T22:40:18.663Z,9.73
2019-05-09T22:42:49.876Z,10.90
2019-05-09T22:45:21.019Z,10.70
2019-05-09T22:47:51.661Z,10.97
2019-05-09T22:50:20.973Z,10.63
2019-05-09T22:52:51.424Z,11.00
2019-05-09T22:55:20.691Z,10.67
2019-05-09T22:57:51.844Z,10.73
2019-05-09T23:00:21.412Z,11.10
2019-05-09T23:02:50.714Z,11.63
2019-05-09T23:05:19.951Z,12.87
2019-05-09T23:07:49.552Z,12.03
2019-05-09T23:10:19.916Z,13.37
2019-05-09T23:12:51.205Z,12.17
2019-05-09T23:15:21.045Z,12.00
2019-05-09T23:17:50.716Z,12.20
2019-05-09T23:20:38.335Z,12.03
2019-05-09T23:23:28.000Z,13.40
2019-05-09T23:25:59.334Z,13.50
2019-05-09T23:28:28.933Z,12.57
2019-05-09T23:31:00.735Z,14.37
2019-05-09T23:33:34.663Z,13.90
2019-05-09T23:36:04.290Z,15.43
2019-05-09T23:38:33.967Z,15.73
2019-05-09T23:41:03.919Z,14.90
2019-05-09T23:43:33.166Z,15.53
2019-05-09T23:46:04.278Z,15.43
2019-05-09T23:48:34.651Z,16.57
2019-05-09T23:51:03.891Z,15.30
2019-05-09T23:53:37.420Z,16.47
2019-05-09T23:56:25.843Z,15.70
2019-05-09T23:59:13.534Z,15.70
